Time;durP1;ratioP1;P1;durP2;ratioP2;P2;SDS_P1;SDS_P2;PMS_P1;PMS_P2;Temp;Humidity;BMP_temperature;BMP_pressure;BME280_temperature;BME280_humidity;BME280_pressure;Samples;Min_cycle;Max_cycle;Signal;HPM_P1;HPM_P2
2022/05/25 00:00:02;;;;;;;7.95;3.95;;;12.60;99.90;;;;;;5092837;28;20040;-75
2022/05/25 00:02:37;;;;;;;12.73;4.47;;;12.50;99.90;;;;;;5092343;28;20484;-74
2022/05/25 00:05:05;;;;;;;9.32;4.65;;;12.40;99.90;;;;;;5072318;28;20033;-75
2022/05/25 00:07:31;;;;;;;8.55;3.67;;;12.20;99.90;;;;;;5072341;28;20025;-74
2022/05/25 00:09:57;;;;;;;7.18;3.53;;;12.30;99.90;;;;;;5072494;28;20112;-74
2022/05/25 00:12:22;;;;;;;7.72;3.45;;;12.20;99.90;;;;;;5072438;28;20150;-75
2022/05/25 00:14:48;;;;;;;11.57;3.88;;;12.10;99.90;;;;;;5071173;28;20035;-78
2022/05/25 00:17:14;;;;;;;8.15;4.82;;;12.00;99.90;;;;;;5070566;28;20209;-76
2022/05/25 00:22:37;;;;;;;6.05;3.38;;;12.10;99.90;;;;;;5072295;28;20043;-77
2022/05/25 00:25:03;;;;;;;10.60;3.58;;;12.30;99.90;;;;;;5074269;28;20182;-77
2022/05/25 00:27:28;;;;;;;7.05;3.60;;;12.20;99.90;;;;;;5089489;28;20031;-77
2022/05/25 00:29:54;;;;;;;8.50;3.33;;;12.30;99.90;;;;;;5094948;28;20412;-76
2022/05/25 00:32:22;;;;;;;7.95;4.20;;;12.20;99.90;;;;;;5095904;28;20113;-77
2022/05/25 00:34:48;;;;;;;9.27;4.03;;;12.20;99.90;;;;;;5096049;28;20043;-76
2022/05/25 00:37:14;;;;;;;8.98;4.65;;;12.30;99.90;;;;;;5095227;28;20133;-77
2022/05/25 00:39:40;;;;;;;9.77;4.22;;;12.30;99.90;;;;;;5075701;28;20044;-76
2022/05/25 00:42:06;;;;;;;8.20;4.30;;;12.00;99.90;;;;;;5075751;28;20029;-77
2022/05/25 00:44:32;;;;;;;10.35;3.47;;;12.00;99.90;;;;;;5075431;28;20115;-77
2022/05/25 00:46:58;;;;;;;13.07;4.65;;;11.90;99.90;;;;;;5075591;28;20070;-76
2022/05/25 00:49:30;;;;;;;10.45;4.75;;;11.90;99.90;;;;;;5075550;28;20021;-75
2022/05/25 00:51:58;;;;;;;;;;;11.90;99.90;;;;;;5075886;28;20067;-75
2022/05/25 00:54:31;;;;;;;8.93;4.10;;;11.80;99.90;;;;;;5074754;28;19905;-76
2022/05/25 00:57:01;;;;;;;9.82;4.03;;;11.80;99.90;;;;;;5075393;28;20094;-75
2022/05/25 00:59:31;;;;;;;10.57;4.30;;;11.70;99.90;;;;;;5075027;28;20072;-75
2022/05/25 01:01:58;;;;;;;10.90;4.10;;;11.80;99.90;;;;;;5075364;28;20052;-76
2022/05/25 01:04:25;;;;;;;10.75;3.90;;;11.80;99.90;;;;;;5090162;28;20032;-74
2022/05/25 01:07:12;;;;;;;11.43;3.80;;;11.70;99.90;;;;;;5095619;28;20063;-74
2022/05/25 01:09:46;;;;;;;9.65;3.47;;;11.60;99.90;;;;;;5095360;28;20040;-74
2022/05/25 01:12:47;;;;;;;11.25;3.85;;;11.40;99.90;;;;;;5095355;28;20028;-75
2022/05/25 01:15:29;;;;;;;18.77;3.90;;;11.40;99.90;;;;;;5094916;28;20035;-74
2022/05/25 01:18:07;;;;;;;;;;;11.50;99.90;;;;;;5095717;28;20036;-74
2022/05/25 01:20:46;;;;;;;10.90;3.95;;;11.30;99.90;;;;;;5094005;28;20356;-74
2022/05/25 01:23:33;;;;;;;9.02;3.85;;;11.40;99.90;;;;;;5095237;28;20036;-75
2022/05/25 01:26:20;;;;;;;9.35;3.67;;;11.50;99.90;;;;;;5095171;28;20020;-75
2022/05/25 01:29:06;;;;;;;9.70;3.53;;;11.70;99.90;;;;;;5094489;28;20024;-75
2022/05/25 01:31:50;;;;;;;8.15;3.75;;;11.40;99.90;;;;;;5095295;28;20436;-74
2022/05/25 01:34:34;;;;;;;15.00;3.67;;;11.40;99.90;;;;;;5095012;28;20028;-74
2022/05/25 01:37:56;;;;;;;12.77;3.03;;;11.50;99.90;;;;;;5093969;28;20107;-74
2022/05/25 01:40:24;;;;;;;8.10;3.22;;;11.20;99.90;;;;;;5056207;28;20060;-75
2022/05/25 01:43:11;;;;;;;10.40;3.80;;;11.30;99.90;;;;;;5074441;28;20380;-75
2022/05/25 01:45:46;;;;;;;8.20;3.05;;;11.30;99.90;;;;;;5074424;28;20455;-76
2022/05/25 01:48:15;;;;;;;10.23;3.90;;;11.40;99.90;;;;;;5074520;28;20029;-75
2022/05/25 01:51:11;;;;;;;10.02;3.35;;;11.50;99.90;;;;;;5074339;28;20028;-75
2022/05/25 01:53:46;;;;;;;7.63;4.50;;;11.50;99.90;;;;;;5070794;28;20045;-74
2022/05/25 01:56:15;;;;;;;8.40;3.42;;;11.20;99.90;;;;;;5085568;28;20047;-73
2022/05/25 01:58:46;;;;;;;14.10;4.30;;;11.20;99.90;;;;;;5072656;28;20091;-75
2022/05/25 02:01:13;;;;;;;11.15;3.90;;;11.20;99.90;;;;;;5074012;28;20388;-75
2022/05/25 02:06:41;;;;;;;13.02;3.85;;;11.30;99.90;;;;;;5094197;28;20036;-74
2022/05/25 02:09:12;;;;;;;13.15;4.05;;;11.50;99.90;;;;;;5094299;28;20024;-75
2022/05/25 02:11:46;;;;;;;13.68;4.13;;;11.30;99.90;;;;;;5093998;28;20077;-74
2022/05/25 02:14:32;;;;;;;17.25;4.57;;;11.20;99.90;;;;;;5094221;28;20127;-74
2022/05/25 02:17:20;;;;;;;13.48;4.13;;;11.20;99.90;;;;;;5092648;28;20033;-75
2022/05/25 02:19:56;;;;;;;10.73;4.47;;;11.30;99.90;;;;;;5094076;28;20042;-74
2022/05/25 02:22:34;;;;;;;8.13;4.53;;;11.20;99.90;;;;;;5094008;28;20035;-76
2022/05/25 02:25:05;;;;;;;16.13;5.07;;;11.30;99.90;;;;;;5095269;28;20495;-76
2022/05/25 02:27:33;;;;;;;9.82;4.10;;;11.20;99.90;;;;;;5096026;28;20024;-77
2022/05/25 02:30:07;;;;;;;13.30;4.43;;;11.20;99.90;;;;;;5096033;28;20019;-76
2022/05/25 02:32:43;;;;;;;13.20;4.68;;;11.00;99.90;;;;;;5093998;28;20535;-77
2022/05/25 02:35:10;;;;;;;17.40;5.13;;;11.10;99.90;;;;;;5092281;28;20036;-76
2022/05/25 02:37:36;;;;;;;10.10;4.20;;;11.10;99.90;;;;;;5093870;28;20028;-76
2022/05/25 02:40:04;;;;;;;14.88;4.80;;;11.10;99.90;;;;;;5093623;28;20040;-76
2022/05/25 02:42:31;;;;;;;12.35;5.03;;;11.10;99.90;;;;;;5092269;28;20028;-76
2022/05/25 02:44:56;;;;;;;17.27;5.13;;;11.20;99.90;;;;;;5093509;28;20028;-76
2022/05/25 02:47:22;;;;;;;14.57;5.25;;;11.10;99.90;;;;;;5091924;28;20054;-75
2022/05/25 02:49:48;;;;;;;16.88;4.65;;;11.20;99.90;;;;;;5093041;28;20077;-76
2022/05/25 02:52:14;;;;;;;22.48;5.70;;;11.20;99.90;;;;;;5092133;28;20040;-76
2022/05/25 02:54:40;;;;;;;11.20;5.43;;;11.40;99.90;;;;;;5092139;28;20016;-76
2022/05/25 02:57:07;;;;;;;17.92;5.05;;;11.20;99.90;;;;;;5093002;28;20392;-74
2022/05/25 02:59:33;;;;;;;15.82;4.60;;;11.20;99.90;;;;;;5093365;28;20507;-73
2022/05/25 03:02:02;;;;;;;10.52;4.65;;;11.10;99.90;;;;;;5092171;28;20314;-74
2022/05/25 03:04:28;;;;;;;17.40;5.13;;;11.00;99.90;;;;;;5093394;28;20622;-73
2022/05/25 03:06:54;;;;;;;16.13;4.82;;;11.00;99.90;;;;;;5093545;28;20020;-73
2022/05/25 03:09:20;;;;;;;13.95;4.90;;;11.00;99.90;;;;;;5093280;28;20502;-73
2022/05/25 03:11:46;;;;;;;12.10;4.53;;;10.90;99.90;;;;;;5092984;28;20031;-72
2022/05/25 03:14:11;;;;;;;10.35;4.45;;;11.00;99.90;;;;;;5091940;28;20502;-73
2022/05/25 03:16:37;;;;;;;18.00;4.90;;;11.10;99.90;;;;;;5092864;28;20032;-74
2022/05/25 03:19:03;;;;;;;12.27;4.32;;;11.00;99.90;;;;;;5093109;28;20051;-73
2022/05/25 03:21:28;;;;;;;10.07;4.32;;;10.80;99.90;;;;;;5093050;28;20024;-72
2022/05/25 03:23:54;;;;;;;13.00;5.03;;;10.70;99.90;;;;;;5093203;28;20138;-74
2022/05/25 03:26:20;;;;;;;11.25;4.57;;;10.70;99.90;;;;;;5092506;28;20089;-73
2022/05/25 03:28:46;;;;;;;15.13;4.63;;;10.90;99.90;;;;;;5093167;28;20035;-73
2022/05/25 03:31:12;;;;;;;13.88;4.82;;;10.70;99.90;;;;;;5093013;28;20077;-73
2022/05/25 03:33:38;;;;;;;11.25;4.72;;;10.70;99.90;;;;;;5091668;28;20032;-73
2022/05/25 03:36:04;;;;;;;14.73;4.85;;;10.70;99.90;;;;;;5092863;28;20024;-72
2022/05/25 03:38:31;;;;;;;11.98;4.60;;;10.70;99.90;;;;;;5091107;28;20044;-74
2022/05/25 03:40:58;;;;;;;13.20;4.43;;;10.60;99.90;;;;;;5092949;28;20067;-73
2022/05/25 03:43:30;;;;;;;11.85;5.03;;;10.70;99.90;;;;;;5093037;28;20119;-73
2022/05/25 03:45:56;;;;;;;11.13;5.38;;;10.60;99.90;;;;;;5092999;28;20063;-73
2022/05/25 03:48:22;;;;;;;10.55;4.57;;;10.50;99.90;;;;;;5092830;28;20071;-74
2022/05/25 03:50:49;;;;;;;7.80;5.22;;;10.60;99.90;;;;;;5092895;28;20120;-74
2022/05/25 03:53:15;;;;;;;18.33;5.80;;;10.70;99.90;;;;;;5092426;28;20027;-73
2022/05/25 03:55:42;;;;;;;12.13;5.40;;;10.50;99.90;;;;;;5092849;28;20074;-75
2022/05/25 03:58:09;;;;;;;15.60;5.00;;;10.60;99.90;;;;;;5091300;28;20028;-75
2022/05/25 04:00:35;;;;;;;13.20;5.32;;;10.60;99.90;;;;;;5095474;28;20028;-75
2022/05/25 04:03:02;;;;;;;15.90;5.07;;;10.70;99.90;;;;;;5096423;28;20095;-74
2022/05/25 04:05:30;;;;;;;8.77;5.20;;;10.70;99.90;;;;;;5096684;28;20491;-74
2022/05/25 04:07:58;;;;;;;16.05;4.57;;;10.60;99.90;;;;;;5096492;28;20528;-75
2022/05/25 04:10:25;;;;;;;13.05;4.80;;;10.60;99.90;;;;;;5095504;28;20032;-74
2022/05/25 04:12:51;;;;;;;12.73;4.65;;;10.80;99.90;;;;;;5096483;28;20028;-75
2022/05/25 04:15:21;;;;;;;20.25;5.57;;;10.90;99.90;;;;;;5096542;28;20484;-74
2022/05/25 04:17:47;;;;;;;18.60;6.75;;;10.70;99.90;;;;;;5095186;28;20586;-76
2022/05/25 04:20:14;;;;;;;12.10;5.55;;;10.80;99.90;;;;;;5096348;28;20484;-74
2022/05/25 04:22:41;;;;;;;12.10;5.47;;;10.90;99.90;;;;;;5096056;28;20034;-74
2022/05/25 04:25:10;;;;;;;18.77;4.90;;;10.80;99.90;;;;;;5096139;28;20036;-73
2022/05/25 04:27:37;;;;;;;13.52;5.25;;;10.80;99.90;;;;;;5096194;28;20036;-73
2022/05/25 04:30:06;;;;;;;11.63;4.90;;;10.80;99.90;;;;;;5096207;28;20103;-74
2022/05/25 04:32:32;;;;;;;10.95;5.15;;;10.90;99.90;;;;;;5096161;28;20098;-74
2022/05/25 04:34:58;;;;;;;12.10;4.65;;;10.80;99.90;;;;;;5095846;28;20028;-75
2022/05/25 04:40:12;;;;;;;9.15;4.70;;;10.80;99.90;;;;;;5096134;28;20485;-74
2022/05/25 04:42:41;;;;;;;10.00;4.93;;;10.80;99.90;;;;;;5095871;28;20025;-75
2022/05/25 04:45:09;;;;;;;11.55;4.95;;;10.80;99.90;;;;;;5095921;28;20027;-75
2022/05/25 04:47:35;;;;;;;14.65;4.97;;;10.80;99.90;;;;;;5095816;28;20055;-75
2022/05/25 04:50:01;;;;;;;11.43;4.80;;;11.00;99.90;;;;;;5095789;28;20033;-74
2022/05/25 04:52:28;;;;;;;18.20;6.00;;;10.90;99.90;;;;;;5095552;28;20032;-73
2022/05/25 04:54:54;;;;;;;20.25;6.00;;;11.00;99.90;;;;;;5095651;28;20043;-73
2022/05/25 04:57:19;;;;;;;7.05;4.80;;;10.90;99.90;;;;;;5095748;28;20028;-73
2022/05/25 04:59:47;;;;;;;11.77;5.18;;;11.00;99.90;;;;;;5093997;28;20044;-74
2022/05/25 05:02:13;;;;;;;17.88;5.05;;;11.00;99.90;;;;;;5094411;28;20072;-73
2022/05/25 05:04:39;;;;;;;10.77;4.88;;;10.90;99.90;;;;;;5095427;28;20434;-74
2022/05/25 05:07:05;;;;;;;17.50;5.25;;;10.90;99.90;;;;;;5095354;28;20106;-74
2022/05/25 05:09:35;;;;;;;14.25;5.80;;;10.90;99.90;;;;;;5095374;28;20157;-73
2022/05/25 05:12:01;;;;;;;11.38;5.70;;;10.90;99.90;;;;;;5094597;28;20093;-75
2022/05/25 05:14:28;;;;;;;14.18;6.70;;;10.90;99.90;;;;;;5093731;28;20032;-74
2022/05/25 05:16:58;;;;;;;13.43;5.72;;;11.10;99.90;;;;;;5095294;28;20043;-74
2022/05/25 05:19:33;;;;;;;19.83;6.75;;;11.20;99.90;;;;;;5093902;28;20036;-74
2022/05/25 05:22:03;;;;;;;10.63;5.70;;;11.00;99.90;;;;;;5093978;28;20025;-74
2022/05/25 05:24:32;;;;;;;18.23;6.72;;;11.20;99.90;;;;;;5093604;28;20040;-75
2022/05/25 05:26:58;;;;;;;12.50;6.55;;;11.30;99.90;;;;;;5095155;28;20024;-75
2022/05/25 05:29:26;;;;;;;12.65;5.97;;;11.40;99.90;;;;;;5095085;28;20111;-74
2022/05/25 05:31:52;;;;;;;11.05;5.93;;;11.50;99.90;;;;;;5095294;28;20065;-74
2022/05/25 05:34:18;;;;;;;14.48;5.90;;;11.60;99.90;;;;;;5090608;28;20410;-74
2022/05/25 05:36:55;;;;;;;15.65;5.85;;;11.80;99.90;;;;;;5090241;28;20452;-74
2022/05/25 05:39:25;;;;;;;15.95;5.72;;;11.80;99.90;;;;;;5107545;28;20051;-74
2022/05/25 05:41:56;;;;;;;10.45;5.70;;;11.80;99.90;;;;;;5096289;28;20024;-75
2022/05/25 05:44:27;;;;;;;17.05;5.68;;;11.80;99.90;;;;;;5098859;28;20507;-76
2022/05/25 05:46:56;;;;;;;12.25;5.80;;;11.80;99.90;;;;;;5105998;28;20480;-74
2022/05/25 05:49:22;;;;;;;19.33;5.25;;;11.80;99.90;;;;;;5093561;28;20039;-76
2022/05/25 05:51:48;;;;;;;11.88;4.75;;;11.90;99.90;;;;;;5105175;28;20020;-74
2022/05/25 05:54:15;;;;;;;13.32;6.35;;;11.70;99.90;;;;;;5100432;28;20450;-73
2022/05/25 05:56:43;;;;;;;11.60;5.35;;;11.80;99.90;;;;;;5095761;28;20024;-73
2022/05/25 05:59:08;;;;;;;9.10;5.78;;;11.90;99.90;;;;;;5107286;27;20115;-74
2022/05/25 06:01:34;;;;;;;13.07;6.80;;;12.00;99.90;;;;;;5094657;28;20102;-75
2022/05/25 06:04:00;;;;;;;10.02;6.25;;;12.10;99.90;;;;;;5094600;28;20118;-74
2022/05/25 06:06:26;;;;;;;21.30;6.38;;;12.20;99.90;;;;;;5101480;28;20127;-75
2022/05/25 06:08:52;;;;;;;16.27;6.53;;;12.30;99.90;;;;;;5095526;27;20502;-74
2022/05/25 06:11:19;;;;;;;17.02;6.20;;;12.20;99.90;;;;;;5107034;28;20072;-76
2022/05/25 06:13:46;;;;;;;8.98;5.40;;;12.30;99.90;;;;;;5096229;28;20118;-76
2022/05/25 06:21:41;;;;;;;25.08;6.43;;;12.50;99.90;;;;;;5080798;28;20608;-75
2022/05/25 06:24:07;;;;;;;21.70;4.63;;;12.40;99.90;;;;;;5101655;28;20021;-76
2022/05/25 06:26:33;;;;;;;13.40;6.32;;;12.40;99.90;;;;;;5102231;28;20035;-76
2022/05/25 06:29:00;;;;;;;13.23;6.55;;;12.50;99.90;;;;;;5093004;28;20090;-77
2022/05/25 06:31:26;;;;;;;15.25;5.90;;;12.60;99.90;;;;;;5106572;28;20430;-75
2022/05/25 06:33:52;;;;;;;20.90;6.43;;;12.70;99.90;;;;;;5096110;28;20019;-75
2022/05/25 06:36:24;;;;;;;14.13;5.72;;;12.90;99.90;;;;;;5098015;28;20040;-76
2022/05/25 06:38:50;;;;;;;16.33;5.35;;;13.20;99.90;;;;;;5103444;28;20051;-75
2022/05/25 06:41:17;;;;;;;15.38;5.78;;;13.30;99.90;;;;;;5093120;28;20102;-76
2022/05/25 06:43:43;;;;;;;22.63;5.22;;;13.40;99.90;;;;;;5103793;28;20020;-77
2022/05/25 06:46:11;;;;;;;14.90;6.18;;;13.40;99.90;;;;;;5097655;28;20015;-76
2022/05/25 06:48:37;;;;;;;14.80;4.95;;;13.60;99.90;;;;;;5096384;28;20501;-74
2022/05/25 06:51:18;;;;;;;10.55;5.25;;;13.70;99.90;;;;;;5105270;28;20583;-77
2022/05/25 06:53:44;;;;;;;11.95;4.10;;;13.50;99.90;;;;;;5080531;28;20380;-74
2022/05/25 06:56:10;;;;;;;10.52;4.90;;;13.40;99.90;;;;;;5099267;28;20020;-74
2022/05/25 06:58:36;;;;;;;9.38;4.70;;;13.50;99.90;;;;;;5101974;28;20040;-76
2022/05/25 07:01:03;;;;;;;8.95;4.00;;;13.60;99.90;;;;;;5093041;28;20035;-76
2022/05/25 07:03:29;;;;;;;8.23;3.85;;;13.80;99.90;;;;;;5080032;28;20024;-76
2022/05/25 07:05:55;;;;;;;9.98;3.88;;;13.90;99.90;;;;;;5096459;28;20035;-77
2022/05/25 07:08:21;;;;;;;14.50;4.25;;;14.20;99.90;;;;;;5097231;28;20035;-74
2022/05/25 07:10:47;;;;;;;10.10;3.63;;;14.60;99.90;;;;;;5102414;28;20023;-76
2022/05/25 07:13:17;;;;;;;5.53;3.65;;;14.60;99.90;;;;;;5092705;28;20476;-76
2022/05/25 07:15:43;;;;;;;7.68;2.85;;;14.70;99.90;;;;;;5104107;28;20036;-76
2022/05/25 07:18:11;;;;;;;5.72;2.67;;;14.70;99.90;;;;;;5097832;28;20019;-76
2022/05/25 07:20:37;;;;;;;7.35;2.72;;;14.80;99.90;;;;;;5096567;28;20056;-76
2022/05/25 07:23:03;;;;;;;12.13;3.45;;;14.90;99.90;;;;;;5104381;28;20464;-76
2022/05/25 07:25:29;;;;;;;10.50;3.08;;;14.90;99.90;;;;;;5076166;28;20432;-75
2022/05/25 07:27:55;;;;;;;8.55;3.15;;;14.70;99.90;;;;;;5100797;28;20460;-76
2022/05/25 07:30:21;;;;;;;7.28;3.15;;;14.40;99.90;;;;;;5099893;28;20034;-75
2022/05/25 07:32:48;;;;;;;5.18;2.50;;;14.60;99.90;;;;;;5094206;28;20373;-76
2022/05/25 07:35:16;;;;;;;11.95;2.53;;;14.60;99.90;;;;;;5103912;28;20491;-74
2022/05/25 07:37:48;;;;;;;9.68;2.35;;;14.80;99.90;;;;;;5094107;28;20452;-76
2022/05/25 07:40:21;;;;;;;8.23;2.30;;;14.70;99.90;;;;;;5100253;28;20115;-76
2022/05/25 07:42:50;;;;;;;6.47;2.55;;;14.70;99.90;;;;;;5103426;28;20020;-73
2022/05/25 07:45:16;;;;;;;9.68;2.92;;;14.80;99.90;;;;;;5092014;28;20032;-75
2022/05/25 07:47:41;;;;;;;10.63;3.10;;;14.70;99.90;;;;;;5086537;28;20027;-77
2022/05/25 07:50:08;;;;;;;13.57;2.60;;;15.00;99.90;;;;;;5086959;28;20024;-76
2022/05/25 07:52:36;;;;;;;9.95;2.60;;;14.80;99.90;;;;;;5101938;28;20032;-77
2022/05/25 07:55:05;;;;;;;6.85;2.22;;;14.90;99.90;;;;;;5080283;28;20024;-77
2022/05/25 07:57:30;;;;;;;10.65;2.50;;;15.10;99.90;;;;;;5107520;28;20039;-76
2022/05/25 07:59:56;;;;;;;8.05;2.33;;;15.20;99.90;;;;;;5096241;28;20036;-76
2022/05/25 08:08:02;;;;;;;9.65;2.15;;;15.50;99.90;;;;;;5081878;28;20096;-76
2022/05/25 08:10:28;;;;;;;10.93;2.22;;;15.80;99.90;;;;;;5102220;28;20027;-76
2022/05/25 08:12:57;;;;;;;8.13;1.88;;;15.80;99.90;;;;;;5104548;28;20036;-75
2022/05/25 08:15:24;;;;;;;10.27;2.05;;;15.70;99.90;;;;;;5095021;28;20111;-77
2022/05/25 08:17:50;;;;;;;7.82;1.90;;;15.70;99.90;;;;;;5078870;28;20062;-76
2022/05/25 08:20:17;;;;;;;7.55;1.90;;;15.90;99.90;;;;;;5100360;28;20504;-76
2022/05/25 08:22:42;;;;;;;12.13;2.25;;;15.90;99.90;;;;;;5093727;28;20372;-77
2022/05/25 08:25:10;;;;;;;5.93;1.70;;;16.30;99.90;;;;;;5097241;28;20035;-77
2022/05/25 08:27:39;;;;;;;6.45;1.77;;;16.20;99.90;;;;;;5108408;28;20031;-77
2022/05/25 08:30:25;;;;;;;7.55;1.58;;;16.30;99.90;;;;;;5098015;28;20043;-77
2022/05/25 08:32:50;;;;;;;6.32;1.42;;;16.20;99.90;;;;;;5099687;28;20496;-76
2022/05/25 08:35:17;;;;;;;6.15;1.38;;;16.40;99.90;;;;;;5107929;28;20031;-77
2022/05/25 08:37:42;;;;;;;5.63;1.67;;;16.60;99.90;;;;;;5109668;28;20028;-77
2022/05/25 08:40:11;;;;;;;7.85;1.92;;;16.70;99.90;;;;;;5097848;28;20034;-77
2022/05/25 08:42:54;;;;;;;8.50;1.42;;;16.60;99.90;;;;;;5101739;28;20028;-77
2022/05/25 08:45:24;;;;;;;5.47;1.50;;;16.60;99.90;;;;;;5094483;28;20064;-78
2022/05/25 08:47:57;;;;;;;9.90;1.20;;;16.80;99.90;;;;;;5081612;28;20031;-77
2022/05/25 08:50:25;;;;;;;10.18;1.58;;;16.90;99.90;;;;;;5106658;27;20027;-78
2022/05/25 08:52:56;;;;;;;4.75;1.48;;;17.20;99.90;;;;;;5103266;28;20145;-77
2022/05/25 08:55:59;;;;;;;7.10;1.45;;;17.40;99.90;;;;;;5096266;28;20372;-76
2022/05/25 08:58:33;;;;;;;10.38;1.30;;;17.30;99.90;;;;;;5090286;28;20046;-77
2022/05/25 09:01:03;;;;;;;7.20;1.45;;;17.50;99.90;;;;;;5101860;27;20027;-77
2022/05/25 09:03:52;;;;;;;4.57;1.30;;;17.80;99.90;;;;;;5106040;28;20059;-77
2022/05/25 09:06:29;;;;;;;12.73;2.70;;;18.10;99.90;;;;;;5107442;28;20047;-77
2022/05/25 09:09:05;;;;;;;3.08;1.20;;;17.60;99.90;;;;;;5106908;28;20043;-76
2022/05/25 09:11:52;;;;;;;2.80;1.15;;;17.50;99.90;;;;;;5098468;28;20031;-78
2022/05/25 09:14:48;;;;;;;6.70;1.30;;;17.70;99.90;;;;;;5106889;28;20028;-77
2022/05/25 09:17:22;;;;;;;6.10;1.63;;;17.90;99.90;;;;;;5110112;28;20369;-75
2022/05/25 09:19:49;;;;;;;4.05;0.95;;;17.70;99.90;;;;;;5098176;28;20369;-77
2022/05/25 09:22:22;;;;;;;3.45;1.10;;;17.70;99.90;;;;;;5108206;28;20032;-77
2022/05/25 09:24:51;;;;;;;5.03;1.50;;;17.10;99.90;;;;;;5099348;28;20036;-77
2022/05/25 09:27:26;;;;;;;6.18;1.20;;;17.10;99.90;;;;;;5089913;28;20024;-77
2022/05/25 09:29:56;;;;;;;5.90;1.08;;;17.50;99.90;;;;;;5088512;28;20065;-77
2022/05/25 09:32:31;;;;;;;5.03;0.98;;;17.60;99.90;;;;;;5104052;28;20085;-78
2022/05/25 09:35:16;;;;;;;7.25;1.13;;;17.80;99.90;;;;;;5074286;28;20062;-77
2022/05/25 09:37:50;;;;;;;6.05;1.35;;;17.60;99.90;;;;;;5096852;28;20115;-77
2022/05/25 09:40:33;;;;;;;6.03;1.20;;;17.40;99.90;;;;;;5091142;28;20048;-78
2022/05/25 09:43:03;;;;;;;6.65;1.20;;;17.70;99.90;;;;;;5113868;28;20365;-77
2022/05/25 09:45:51;;;;;;;12.65;1.25;;;17.50;99.90;;;;;;5088601;28;20036;-77
2022/05/25 09:48:46;;;;;;;1.92;0.73;;;17.40;99.90;;;;;;5086685;28;20043;-78
2022/05/25 09:51:18;;;;;;;4.25;0.90;;;17.30;99.40;;;;;;5074506;28;20052;-77
2022/05/25 09:53:48;;;;;;;;;;;17.00;99.90;;;;;;5083526;28;20020;-76
2022/05/25 09:56:28;;;;;;;4.15;1.20;;;16.90;99.90;;;;;;5106993;28;19908;-77
2022/05/25 09:59:00;;;;;;;7.25;1.27;;;16.90;99.90;;;;;;5092012;28;20040;-75
2022/05/25 10:01:47;;;;;;;4.57;1.10;;;17.10;99.90;;;;;;5078076;28;20026;-78
2022/05/25 10:04:51;;;;;;;4.68;1.13;;;17.40;99.90;;;;;;5092630;28;20024;-77
2022/05/25 10:07:31;;;;;;;3.78;1.30;;;18.10;99.90;;;;;;5087914;28;20024;-78
2022/05/25 10:10:06;;;;;;;3.35;1.20;;;18.40;99.60;;;;;;5080727;28;20024;-78
2022/05/25 10:12:39;;;;;;;5.22;0.93;;;18.20;99.90;;;;;;5104993;28;20031;-77
2022/05/25 10:15:15;;;;;;;7.18;1.15;;;18.50;99.30;;;;;;5106527;28;20386;-75
2022/05/25 10:17:43;;;;;;;2.85;1.13;;;18.10;99.60;;;;;;5085753;28;20043;-76
2022/05/25 10:20:24;;;;;;;5.43;1.17;;;17.80;99.90;;;;;;5082952;28;20027;-76
2022/05/25 10:22:59;;;;;;;8.57;1.13;;;18.00;99.90;;;;;;5097418;28;20036;-74
2022/05/25 10:25:46;;;;;;;4.55;1.90;;;17.70;99.90;;;;;;5093646;28;20061;-74
2022/05/25 10:28:29;;;;;;;3.35;0.90;;;17.60;99.90;;;;;;5096571;28;20024;-75
2022/05/25 10:36:45;;;;;;;3.88;1.05;;;18.30;99.00;;;;;;5110093;28;20020;-77
2022/05/25 10:37:07;;;;;;;2.67;1.10;;;18.40;98.10;;;;;;5098627;28;20042;-77
2022/05/25 10:39:43;;;;;;;1.25;0.60;;;18.60;97.50;;;;;;5094837;28;20047;-74
2022/05/25 10:42:23;;;;;;;3.85;0.90;;;18.70;95.40;;;;;;5108193;28;20098;-76
2022/05/25 10:45:10;;;;;;;5.25;0.80;;;18.80;95.80;;;;;;5093314;28;20059;-76
2022/05/25 10:47:45;;;;;;;3.33;1.15;;;19.40;95.50;;;;;;5073235;28;20115;-74
2022/05/25 10:50:43;;;;;;;6.57;0.85;;;19.30;95.80;;;;;;5073272;28;20364;-73
2022/05/25 10:53:34;;;;;;;1.52;0.63;;;18.90;96.70;;;;;;5070504;28;20036;-74
2022/05/25 10:56:04;;;;;;;3.28;0.60;;;18.70;97.00;;;;;;5073506;28;20389;-76
2022/05/25 10:58:38;;;;;;;3.28;0.85;;;18.40;97.80;;;;;;5092032;28;20135;-74
2022/05/25 11:01:34;;;;;;;5.05;0.80;;;18.40;96.70;;;;;;5091790;28;20529;-76
2022/05/25 11:04:16;;;;;;;6.18;1.40;;;18.90;97.10;;;;;;5093103;28;20465;-74
2022/05/25 11:06:52;;;;;;;4.68;0.80;;;18.90;94.60;;;;;;5091874;28;20067;-75
2022/05/25 11:09:55;;;;;;;6.07;0.70;;;18.80;95.30;;;;;;5092315;28;20392;-74
2022/05/25 11:12:26;;;;;;;4.15;0.98;;;18.70;95.20;;;;;;5092965;28;20036;-74
2022/05/25 11:14:57;;;;;;;;;;;18.50;95.70;;;;;;5093651;28;20423;-76
2022/05/25 11:17:45;;;;;;;5.07;0.93;;;18.20;95.70;;;;;;5091732;28;20269;-76
2022/05/25 11:20:26;;;;;;;1.75;0.80;;;18.60;96.90;;;;;;5091964;28;20136;-76
2022/05/25 11:23:24;;;;;;;8.32;0.88;;;18.80;94.30;;;;;;5092569;28;20035;-74
2022/05/25 11:25:50;;;;;;;4.13;1.05;;;18.50;94.30;;;;;;5083663;28;20032;-76
2022/05/25 11:28:22;;;;;;;4.85;0.77;;;18.40;94.80;;;;;;5091540;28;20400;-76
2022/05/25 11:31:01;;;;;;;5.10;1.10;;;18.00;95.30;;;;;;5092467;28;20031;-76
2022/05/25 11:33:56;;;;;;;3.15;0.80;;;17.90;96.00;;;;;;5091550;28;20020;-76
2022/05/25 11:36:39;;;;;;;3.08;1.17;;;17.60;96.60;;;;;;5083909;28;20182;-76
2022/05/25 11:39:14;;;;;;;4.65;0.88;;;17.50;97.20;;;;;;5092551;28;20090;-76
2022/05/25 11:41:57;;;;;;;4.75;1.25;;;17.40;98.10;;;;;;5092841;28;20028;-76
2022/05/25 11:44:52;;;;;;;3.97;1.13;;;17.60;98.70;;;;;;5091548;28;20497;-77
2022/05/25 11:47:51;;;;;;;4.97;0.90;;;17.80;98.30;;;;;;5092748;28;20047;-74
2022/05/25 11:50:31;;;;;;;2.90;0.88;;;18.00;98.40;;;;;;5074536;28;20048;-77
2022/05/25 11:53:18;;;;;;;9.05;1.17;;;18.10;97.70;;;;;;5072159;28;20017;-74
2022/05/25 11:55:48;;;;;;;5.28;1.00;;;18.10;98.00;;;;;;5072603;28;20480;-74
2022/05/25 11:58:43;;;;;;;5.00;0.88;;;18.10;98.20;;;;;;5072414;28;20028;-75
2022/05/25 12:01:46;;;;;;;5.75;1.17;;;17.90;98.80;;;;;;5049855;28;20033;-75
2022/05/25 12:04:26;;;;;;;4.82;1.48;;;17.80;98.70;;;;;;5084666;28;20044;-74
2022/05/25 12:07:13;;;;;;;5.47;1.20;;;18.40;98.20;;;;;;5088737;28;20028;-74
2022/05/25 12:09:47;;;;;;;5.80;1.10;;;19.20;98.20;;;;;;5087161;28;20040;-75
2022/05/25 12:12:32;;;;;;;11.93;1.50;;;19.20;96.90;;;;;;5092584;28;20181;-75
2022/05/25 12:15:21;;;;;;;7.72;1.17;;;18.70;97.00;;;;;;5092466;28;20055;-75
2022/05/25 12:18:13;;;;;;;3.80;0.95;;;18.70;96.40;;;;;;5092580;28;20036;-74
2022/05/25 12:21:04;;;;;;;6.85;1.33;;;18.90;95.70;;;;;;5093554;28;20572;-74
2022/05/25 12:23:38;;;;;;;9.38;1.10;;;19.40;94.70;;;;;;5093323;28;20051;-76
2022/05/25 12:26:27;;;;;;;3.38;0.77;;;19.40;95.70;;;;;;5096448;28;20028;-76
2022/05/25 12:29:04;;;;;;;19.10;1.73;;;19.00;95.40;;;;;;5096096;28;20356;-76
2022/05/25 12:31:32;;;;;;;2.75;0.95;;;19.00;95.20;;;;;;5096161;28;20036;-76
2022/05/25 12:33:59;;;;;;;13.73;1.45;;;19.30;94.10;;;;;;5096225;28;20016;-74
2022/05/25 12:36:25;;;;;;;3.75;0.90;;;19.60;94.60;;;;;;5094531;28;20496;-75
2022/05/25 12:38:53;;;;;;;4.82;0.90;;;19.60;94.60;;;;;;5095425;28;20040;-74
2022/05/25 12:41:25;;;;;;;7.95;1.15;;;19.90;95.10;;;;;;5096333;28;20069;-74
2022/05/25 12:43:54;;;;;;;9.85;0.93;;;19.50;94.00;;;;;;5095926;28;20046;-76
2022/05/25 12:49:40;;;;;;;5.80;1.50;;;19.50;94.30;;;;;;5084390;28;20020;-77
2022/05/25 12:52:28;;;;;;;4.65;0.85;;;19.40;94.60;;;;;;5075732;28;20553;-77
2022/05/25 12:55:20;;;;;;;6.75;1.00;;;19.30;94.70;;;;;;5075370;28;20029;-76
2022/05/25 12:57:50;;;;;;;5.72;0.70;;;19.40;94.50;;;;;;5075091;28;20040;-76
2022/05/25 13:00:16;;;;;;;3.40;0.85;;;19.40;94.00;;;;;;5075392;28;20047;-76
2022/05/25 13:02:41;;;;;;;7.93;1.20;;;19.00;92.20;;;;;;5075869;28;20108;-76
2022/05/25 13:05:08;;;;;;;5.57;0.93;;;18.70;93.30;;;;;;5095108;28;20066;-77
2022/05/25 13:07:42;;;;;;;5.35;1.00;;;19.00;93.70;;;;;;5095701;28;20068;-77
2022/05/25 13:10:33;;;;;;;3.45;0.70;;;18.90;93.90;;;;;;5095573;28;20392;-77
2022/05/25 13:13:38;;;;;;;9.77;0.95;;;18.80;94.30;;;;;;5095103;28;20028;-76
2022/05/25 13:16:04;;;;;;;9.70;1.00;;;18.70;94.10;;;;;;5094889;28;20433;-77
2022/05/25 13:18:57;;;;;;;4.40;0.80;;;18.60;93.80;;;;;;5094759;28;20107;-76
2022/05/25 13:21:41;;;;;;;3.15;0.90;;;18.90;94.10;;;;;;5095249;28;20431;-76
2022/05/25 13:24:21;;;;;;;8.95;0.98;;;19.40;93.60;;;;;;5095254;28;20480;-76
2022/05/25 13:27:21;;;;;;;4.78;1.23;;;19.20;94.10;;;;;;5095517;28;20032;-76
2022/05/25 13:30:11;;;;;;;8.45;1.00;;;19.50;94.20;;;;;;5094963;28;20503;-76
2022/05/25 13:33:13;;;;;;;9.65;1.08;;;19.50;93.90;;;;;;5093004;28;20032;-76
2022/05/25 13:36:04;;;;;;;4.65;0.80;;;19.60;93.80;;;;;;5072381;28;20028;-77
2022/05/25 13:38:50;;;;;;;4.97;1.08;;;19.00;94.40;;;;;;5094211;28;20043;-77